createdAt,value
2023-03-30T00:00:20.251Z,9.90
2023-03-30T00:02:53.730Z,9.90
2023-03-30T00:05:23.938Z,9.90
2023-03-30T00:07:52.184Z,10.00
2023-03-30T00:10:22.512Z,10.00
2023-03-30T00:12:52.851Z,10.00
2023-03-30T00:15:22.709Z,10.00
2023-03-30T00:17:54.880Z,10.10
2023-03-30T00:20:23.664Z,10.10
2023-03-30T00:22:52.189Z,10.10
2023-03-30T00:25:23.273Z,10.10
2023-03-30T00:27:54.232Z,10.10
2023-03-30T00:30:23.423Z,10.20
2023-03-30T00:32:56.053Z,10.20
2023-03-30T00:35:26.492Z,10.20
2023-03-30T00:37:56.969Z,10.20
2023-03-30T00:40:25.530Z,10.20
2023-03-30T00:42:58.667Z,10.20
2023-03-30T00:45:28.597Z,10.20
2023-03-30T00:48:02.662Z,10.30
2023-03-30T00:50:36.142Z,10.30
2023-03-30T00:53:09.989Z,10.40
2023-03-30T00:55:41.886Z,10.40
2023-03-30T00:58:10.904Z,10.40
2023-03-30T01:00:40.369Z,10.50
2023-03-30T01:03:15.034Z,10.50
2023-03-30T01:05:46.283Z,10.50
2023-03-30T01:08:16.600Z,10.50
2023-03-30T01:10:47.905Z,10.60
2023-03-30T01:13:16.301Z,10.60
2023-03-30T01:15:57.272Z,10.70
2023-03-30T01:18:35.961Z,10.70
2023-03-30T01:21:29.924Z,10.70
2023-03-30T01:24:49.739Z,10.70
2023-03-30T01:27:40.175Z,10.80
2023-03-30T01:30:32.549Z,10.80
2023-03-30T01:33:30.830Z,10.80
2023-03-30T01:36:18.882Z,10.80
2023-03-30T01:39:29.137Z,10.80
2023-03-30T01:42:06.998Z,10.90
2023-03-30T01:44:43.914Z,11.00
2023-03-30T01:47:20.196Z,11.00
2023-03-30T01:49:56.384Z,11.10
2023-03-30T01:52:31.736Z,11.20
2023-03-30T01:55:05.670Z,11.20
2023-03-30T01:57:42.811Z,11.20
2023-03-30T02:00:15.116Z,11.30
2023-03-30T02:02:47.049Z,11.40
2023-03-30T02:05:18.053Z,11.50
2023-03-30T02:07:51.023Z,11.50
2023-03-30T02:10:23.184Z,11.60
2023-03-30T02:12:53.080Z,11.60
2023-03-30T02:15:21.517Z,11.70
2023-03-30T02:17:49.787Z,11.70
2023-03-30T02:20:18.973Z,11.70
2023-03-30T02:22:50.067Z,11.70
2023-03-30T02:25:19.172Z,11.70
2023-03-30T02:27:48.851Z,11.80
2023-03-30T02:30:19.877Z,11.70
2023-03-30T02:32:53.408Z,11.80
2023-03-30T02:35:38.349Z,11.80
2023-03-30T02:38:34.762Z,11.80
2023-03-30T02:41:17.476Z,11.80
2023-03-30T02:44:01.447Z,11.80
2023-03-30T02:46:47.649Z,11.80
2023-03-30T02:49:25.482Z,11.80
2023-03-30T02:52:03.872Z,11.80
2023-03-30T02:54:52.905Z,11.80
2023-03-30T02:57:54.970Z,11.80
2023-03-30T03:00:53.672Z,11.80
2023-03-30T03:03:28.915Z,11.90
2023-03-30T03:06:02.446Z,11.90
2023-03-30T03:08:37.839Z,11.90
2023-03-30T03:11:08.126Z,11.90
2023-03-30T03:13:43.816Z,11.90
2023-03-30T03:16:16.500Z,11.90
2023-03-30T03:19:05.664Z,11.90
2023-03-30T03:21:33.795Z,11.90
2023-03-30T03:24:02.066Z,12.00
2023-03-30T03:26:50.438Z,12.00
2023-03-30T03:29:19.507Z,12.00
2023-03-30T03:31:49.052Z,12.00
2023-03-30T03:34:22.157Z,12.00
2023-03-30T03:36:58.959Z,12.00
2023-03-30T03:39:29.734Z,12.10
2023-03-30T03:42:06.812Z,12.00
2023-03-30T03:44:40.492Z,12.10
2023-03-30T03:47:10.056Z,12.00
2023-03-30T03:49:38.119Z,12.10
2023-03-30T03:52:06.558Z,12.10
2023-03-30T03:54:34.730Z,12.10
2023-03-30T03:57:02.946Z,12.10
2023-03-30T03:59:31.183Z,12.20
2023-03-30T04:02:01.682Z,12.10
2023-03-30T04:04:33.876Z,12.20
2023-03-30T04:07:02.258Z,12.30
2023-03-30T04:09:30.505Z,12.30
2023-03-30T04:12:20.231Z,12.30
2023-03-30T04:15:17.714Z,12.40
2023-03-30T04:18:08.780Z,12.30
2023-03-30T04:20:51.904Z,12.30
2023-03-30T04:23:49.310Z,12.30
2023-03-30T04:26:20.729Z,12.30
2023-03-30T04:29:06.887Z,12.40
2023-03-30T04:31:46.941Z,12.40
2023-03-30T04:34:37.028Z,12.40
2023-03-30T04:37:30.264Z,12.30
2023-03-30T04:40:17.374Z,12.30
2023-03-30T04:43:14.558Z,12.40
2023-03-30T04:46:03.375Z,12.40
2023-03-30T04:48:50.902Z,12.50
2023-03-30T04:51:48.151Z,12.50
2023-03-30T04:54:35.971Z,12.40
2023-03-30T04:57:13.993Z,12.50
2023-03-30T04:59:57.353Z,12.50
2023-03-30T05:02:45.547Z,12.50
2023-03-30T05:05:28.335Z,12.50
2023-03-30T05:08:19.408Z,12.50
2023-03-30T05:11:11.881Z,12.60
2023-03-30T05:13:45.652Z,12.50
2023-03-30T05:16:32.573Z,12.50
2023-03-30T05:19:13.199Z,12.50
2023-03-30T05:22:00.241Z,12.40
2023-03-30T05:24:28.433Z,12.40
2023-03-30T05:27:20.814Z,12.30
2023-03-30T05:30:15.993Z,12.40
2023-03-30T05:33:02.881Z,12.40
2023-03-30T05:35:54.403Z,12.40
2023-03-30T05:38:38.539Z,12.40
2023-03-30T05:41:32.676Z,12.30
2023-03-30T05:44:15.842Z,12.30
2023-03-30T05:46:46.791Z,12.30
2023-03-30T05:49:41.403Z,12.30
2023-03-30T05:52:23.894Z,12.30
2023-03-30T05:54:58.038Z,12.30
2023-03-30T05:57:47.868Z,12.30
2023-03-30T06:00:37.355Z,12.30
2023-03-30T06:03:14.198Z,12.20
2023-03-30T06:05:43.715Z,12.20
2023-03-30T06:08:13.600Z,12.30
2023-03-30T06:10:53.492Z,12.30
2023-03-30T06:13:21.775Z,12.30
2023-03-30T06:15:54.225Z,12.30
2023-03-30T06:18:26.189Z,12.30
2023-03-30T06:21:06.992Z,12.40
2023-03-30T06:23:49.088Z,12.40
2023-03-30T06:26:21.369Z,12.50
2023-03-30T06:28:51.909Z,12.50
2023-03-30T06:31:21.599Z,12.60
2023-03-30T06:33:56.608Z,12.70
2023-03-30T06:36:43.840Z,12.80
2023-03-30T06:39:13.620Z,12.80
2023-03-30T06:41:44.082Z,12.90
2023-03-30T06:44:31.275Z,13.00
2023-03-30T06:47:05.488Z,13.10
2023-03-30T06:49:34.160Z,13.10
2023-03-30T06:52:13.068Z,13.10
2023-03-30T06:54:41.668Z,13.10
2023-03-30T06:57:10.525Z,13.10
2023-03-30T06:59:38.719Z,13.10
2023-03-30T07:02:23.445Z,13.10
2023-03-30T07:05:15.821Z,13.00
2023-03-30T07:08:08.590Z,12.90
2023-03-30T07:10:39.855Z,12.80
2023-03-30T07:13:09.757Z,12.70
2023-03-30T07:15:41.173Z,12.60
2023-03-30T07:18:13.826Z,12.50
2023-03-30T07:20:44.647Z,12.40
2023-03-30T07:23:21.822Z,12.30
2023-03-30T07:25:53.084Z,12.30
2023-03-30T07:28:30.409Z,12.30
2023-03-30T07:31:06.468Z,12.30
2023-03-30T07:33:38.088Z,12.20
2023-03-30T07:36:08.618Z,12.30
2023-03-30T07:38:39.654Z,12.30
2023-03-30T07:41:12.492Z,12.30
2023-03-30T07:43:41.557Z,12.30
2023-03-30T07:46:11.904Z,12.30
2023-03-30T07:48:43.695Z,12.40
2023-03-30T07:51:14.613Z,12.50
2023-03-30T07:53:50.824Z,12.50
2023-03-30T07:56:25.246Z,12.60
2023-03-30T07:58:57.147Z,12.60
2023-03-30T08:01:31.505Z,12.70
2023-03-30T08:04:27.912Z,12.70
2023-03-30T08:06:58.253Z,12.80
2023-03-30T08:09:27.606Z,12.80
2023-03-30T08:11:55.782Z,12.80
2023-03-30T08:14:27.380Z,12.90
2023-03-30T08:16:58.023Z,12.90
2023-03-30T08:19:28.588Z,13.00
2023-03-30T08:21:57.235Z,13.00
2023-03-30T08:24:25.451Z,13.00
2023-03-30T08:26:53.538Z,13.00
2023-03-30T08:29:21.928Z,13.00
2023-03-30T08:31:52.010Z,12.90
2023-03-30T08:34:20.341Z,12.90
2023-03-30T08:36:49.825Z,12.70
2023-03-30T08:39:18.244Z,12.70
2023-03-30T08:42:07.683Z,12.60
2023-03-30T08:44:39.203Z,12.50
2023-03-30T08:47:13.379Z,12.50
2023-03-30T08:49:47.954Z,12.50
2023-03-30T08:52:24.827Z,12.40
2023-03-30T08:54:53.504Z,12.50
2023-03-30T08:57:39.105Z,12.50
2023-03-30T09:00:20.176Z,12.50
2023-03-30T09:02:52.394Z,12.50
2023-03-30T09:05:27.560Z,12.50
2023-03-30T09:08:03.710Z,12.60
2023-03-30T09:10:44.331Z,12.70
2023-03-30T09:13:17.650Z,12.80
2023-03-30T09:15:51.057Z,12.90
2023-03-30T09:18:23.459Z,12.90
2023-03-30T09:20:57.143Z,13.00
2023-03-30T09:23:31.118Z,13.10
2023-03-30T09:26:13.194Z,13.20
2023-03-30T09:28:48.498Z,13.40
2023-03-30T09:31:22.245Z,13.50
2023-03-30T09:33:58.126Z,13.60
2023-03-30T09:36:33.450Z,13.80
2023-03-30T09:39:04.372Z,13.80
2023-03-30T09:41:49.109Z,13.80
2023-03-30T09:44:24.359Z,13.90
2023-03-30T09:46:58.275Z,14.00
2023-03-30T09:49:28.955Z,14.10
2023-03-30T09:52:03.414Z,14.30
2023-03-30T09:54:39.323Z,14.40
2023-03-30T09:57:22.976Z,14.30
2023-03-30T09:59:52.759Z,14.20
2023-03-30T10:02:21.967Z,14.20
2023-03-30T10:05:02.327Z,14.10
2023-03-30T10:07:33.799Z,14.00
2023-03-30T10:10:14.677Z,14.00
2023-03-30T10:12:42.904Z,13.90
2023-03-30T10:15:18.415Z,13.80
2023-03-30T10:17:51.450Z,13.70
2023-03-30T10:20:27.160Z,13.70
2023-03-30T10:22:57.237Z,13.60
2023-03-30T10:25:29.671Z,13.60
2023-03-30T10:28:01.640Z,13.50
2023-03-30T10:30:30.790Z,13.50
2023-03-30T10:33:03.569Z,13.50
2023-03-30T10:35:37.581Z,13.50
2023-03-30T10:38:12.421Z,13.50
2023-03-30T10:40:45.072Z,13.60
2023-03-30T10:43:16.246Z,13.60
2023-03-30T10:45:48.569Z,13.70
2023-03-30T10:48:36.083Z,13.80
2023-03-30T10:51:11.231Z,13.80
2023-03-30T10:53:51.902Z,13.90
2023-03-30T10:56:28.790Z,14.00
2023-03-30T10:59:31.576Z,14.10
2023-03-30T11:02:18.507Z,14.10
2023-03-30T11:04:48.871Z,14.10
2023-03-30T11:07:23.927Z,14.00
2023-03-30T11:09:57.362Z,14.00
2023-03-30T11:12:30.439Z,14.00
2023-03-30T11:15:02.983Z,14.00
2023-03-30T11:17:35.153Z,14.00
2023-03-30T11:20:18.448Z,13.90
2023-03-30T11:22:55.611Z,13.70
2023-03-30T11:25:28.090Z,13.60
2023-03-30T11:28:02.534Z,13.40
2023-03-30T11:30:32.678Z,13.30
2023-03-30T11:33:09.215Z,13.40
2023-03-30T11:35:43.038Z,13.40
2023-03-30T11:38:16.937Z,13.50
2023-03-30T11:40:49.369Z,13.70
2023-03-30T11:43:21.453Z,13.80
2023-03-30T11:46:03.868Z,14.00
2023-03-30T11:48:57.254Z,14.10
2023-03-30T11:51:44.540Z,14.40
2023-03-30T11:54:56.126Z,14.60
2023-03-30T11:57:37.992Z,14.90
2023-03-30T12:00:26.938Z,15.10
2023-03-30T12:03:02.895Z,15.20
2023-03-30T12:05:36.281Z,15.10
2023-03-30T12:08:14.223Z,15.00
2023-03-30T12:10:44.002Z,15.00
2023-03-30T12:13:14.144Z,15.00
2023-03-30T12:15:49.962Z,15.00
2023-03-30T12:18:30.194Z,14.90
2023-03-30T12:21:14.774Z,14.90
2023-03-30T12:23:50.080Z,14.80
2023-03-30T12:26:25.547Z,14.90
2023-03-30T12:29:36.070Z,14.90
2023-03-30T12:32:07.006Z,14.90
2023-03-30T12:34:37.197Z,14.90
2023-03-30T12:37:13.018Z,15.00
2023-03-30T12:39:48.839Z,15.00
2023-03-30T12:42:35.170Z,15.10
2023-03-30T12:45:22.210Z,15.20
2023-03-30T12:48:08.856Z,15.30
2023-03-30T12:50:46.396Z,15.30
2023-03-30T12:53:39.393Z,15.30
2023-03-30T12:56:15.898Z,15.30
2023-03-30T12:59:01.338Z,15.30
2023-03-30T13:02:01.780Z,15.30
2023-03-30T13:04:37.297Z,15.30
2023-03-30T13:07:15.165Z,15.20
2023-03-30T13:09:55.228Z,15.30
2023-03-30T13:12:35.957Z,15.30
2023-03-30T13:15:33.325Z,15.20
2023-03-30T13:18:24.178Z,15.10
2023-03-30T13:21:24.519Z,15.20
2023-03-30T13:24:25.035Z,15.40
2023-03-30T13:26:54.067Z,15.40
2023-03-30T13:29:30.948Z,15.50
2023-03-30T13:32:18.786Z,15.50
2023-03-30T13:35:10.056Z,15.60
2023-03-30T13:38:04.194Z,15.50
2023-03-30T13:40:57.786Z,15.40
2023-03-30T13:43:43.182Z,15.40
2023-03-30T13:46:21.865Z,15.30
2023-03-30T13:49:03.206Z,15.20
2023-03-30T13:51:32.837Z,15.30
2023-03-30T13:54:05.109Z,15.30
2023-03-30T13:56:36.290Z,15.30
2023-03-30T13:59:11.347Z,15.50
2023-03-30T14:01:40.548Z,15.50
2023-03-30T14:04:13.710Z,15.60
2023-03-30T14:06:45.890Z,15.70
2023-03-30T14:09:21.563Z,15.60
2023-03-30T14:11:51.204Z,15.50
2023-03-30T14:14:27.891Z,15.40
2023-03-30T14:17:03.422Z,15.50
2023-03-30T14:19:36.241Z,15.50
2023-03-30T14:22:11.461Z,15.60
2023-03-30T14:24:41.011Z,15.70
2023-03-30T14:27:16.513Z,15.80
2023-03-30T14:29:48.632Z,15.90
2023-03-30T14:32:23.359Z,15.90
2023-03-30T14:34:53.680Z,16.00
2023-03-30T14:37:24.579Z,15.90
2023-03-30T14:39:56.614Z,16.00
2023-03-30T14:42:27.744Z,15.90
2023-03-30T14:44:58.849Z,15.80
2023-03-30T14:47:29.713Z,15.60
2023-03-30T14:50:09.489Z,15.60
2023-03-30T14:52:41.736Z,15.70
2023-03-30T14:55:18.384Z,15.80
2023-03-30T14:57:50.203Z,15.90
2023-03-30T15:00:24.893Z,15.90
2023-03-30T15:02:56.818Z,15.80
2023-03-30T15:05:29.553Z,15.60
2023-03-30T15:07:57.737Z,15.40
2023-03-30T15:10:33.042Z,15.30
2023-03-30T15:13:02.347Z,15.10
2023-03-30T15:15:33.176Z,14.90
2023-03-30T15:18:05.015Z,14.90
2023-03-30T15:20:33.570Z,14.80
2023-03-30T15:23:02.106Z,14.80
2023-03-30T15:25:35.167Z,14.70
2023-03-30T15:28:06.651Z,14.70
2023-03-30T15:30:37.130Z,14.70
2023-03-30T15:33:08.479Z,14.70
2023-03-30T15:35:38.656Z,14.70
2023-03-30T15:38:16.806Z,14.90
2023-03-30T15:40:47.897Z,15.10
2023-03-30T15:43:21.241Z,15.20
2023-03-30T15:45:53.335Z,15.30
2023-03-30T15:48:24.799Z,15.30
2023-03-30T15:50:57.398Z,15.30
2023-03-30T15:53:36.507Z,15.20
2023-03-30T15:56:11.092Z,15.10
2023-03-30T15:58:39.378Z,15.10
2023-03-30T16:01:10.717Z,15.10
2023-03-30T16:03:41.354Z,15.10
2023-03-30T16:06:14.120Z,15.10
2023-03-30T16:08:45.267Z,15.10
2023-03-30T16:11:16.959Z,15.10
2023-03-30T16:13:49.889Z,15.00
2023-03-30T16:16:19.058Z,15.00
2023-03-30T16:18:47.515Z,15.00
2023-03-30T16:21:17.212Z,14.90
2023-03-30T16:23:47.356Z,14.90
2023-03-30T16:26:17.773Z,14.90
2023-03-30T16:28:46.140Z,14.80
2023-03-30T16:31:20.750Z,14.80
2023-03-30T16:33:49.119Z,14.70
2023-03-30T16:36:19.517Z,14.70
2023-03-30T16:38:48.689Z,14.70
2023-03-30T16:41:22.351Z,14.60
2023-03-30T16:43:51.352Z,14.60
2023-03-30T16:46:22.342Z,14.50
2023-03-30T16:48:53.716Z,14.50
2023-03-30T16:51:22.628Z,14.40
2023-03-30T16:53:50.949Z,14.40
2023-03-30T16:56:21.721Z,14.40
2023-03-30T16:58:57.035Z,14.30
2023-03-30T17:01:29.097Z,14.30
2023-03-30T17:03:57.444Z,14.20
2023-03-30T17:06:25.927Z,14.20
2023-03-30T17:08:55.501Z,14.20
2023-03-30T17:11:25.016Z,14.10
2023-03-30T17:13:53.146Z,14.10
2023-03-30T17:16:27.290Z,14.10
2023-03-30T17:18:58.154Z,14.10
2023-03-30T17:21:28.678Z,14.00
2023-03-30T17:23:57.885Z,14.00
2023-03-30T17:26:27.446Z,13.90
2023-03-30T17:28:55.610Z,13.90
2023-03-30T17:31:26.192Z,13.80
2023-03-30T17:33:54.533Z,13.80
2023-03-30T17:36:24.521Z,13.70
2023-03-30T17:38:54.912Z,13.70
2023-03-30T17:41:23.050Z,13.60
2023-03-30T17:43:55.123Z,13.60
2023-03-30T17:46:26.043Z,13.60
2023-03-30T17:48:54.385Z,13.60
2023-03-30T17:51:22.656Z,13.60
2023-03-30T17:53:50.916Z,13.50
2023-03-30T17:56:19.328Z,13.50
2023-03-30T17:58:49.129Z,13.40
2023-03-30T18:01:20.916Z,13.40
2023-03-30T18:03:49.225Z,13.40
2023-03-30T18:06:19.875Z,13.20
2023-03-30T18:08:48.584Z,13.20
2023-03-30T18:11:16.866Z,13.20
2023-03-30T18:13:53.587Z,13.20
2023-03-30T18:16:26.402Z,13.10
2023-03-30T18:18:58.832Z,13.10
2023-03-30T18:21:31.371Z,13.00
2023-03-30T18:24:03.759Z,13.00
2023-03-30T18:26:35.773Z,13.00
2023-03-30T18:29:06.525Z,13.00
2023-03-30T18:31:38.686Z,12.90
2023-03-30T18:34:09.081Z,12.90
2023-03-30T18:36:39.659Z,12.90
2023-03-30T18:39:10.179Z,12.80
2023-03-30T18:41:38.561Z,12.80
2023-03-30T18:44:08.944Z,12.80
2023-03-30T18:46:38.829Z,12.80
2023-03-30T18:49:10.842Z,12.80
2023-03-30T18:51:50.651Z,12.80
2023-03-30T18:54:21.104Z,12.80
2023-03-30T18:56:51.432Z,12.70
2023-03-30T18:59:23.144Z,12.70
2023-03-30T19:01:53.564Z,12.70
2023-03-30T19:04:24.610Z,12.70
2023-03-30T19:06:54.392Z,12.70
2023-03-30T19:09:36.446Z,12.70
2023-03-30T19:12:14.659Z,12.70
2023-03-30T19:14:45.988Z,12.60
2023-03-30T19:17:17.904Z,12.60
2023-03-30T19:19:46.196Z,12.60
2023-03-30T19:22:14.640Z,12.50
2023-03-30T19:24:42.748Z,12.50
2023-03-30T19:27:11.131Z,12.50
2023-03-30T19:29:40.727Z,12.50
2023-03-30T19:32:14.495Z,12.40
2023-03-30T19:34:44.848Z,12.40
2023-03-30T19:37:16.094Z,12.40
2023-03-30T19:39:45.781Z,12.40
2023-03-30T19:42:14.427Z,12.30
2023-03-30T19:44:42.545Z,12.30
2023-03-30T19:47:11.162Z,12.30
2023-03-30T19:49:39.825Z,12.30
2023-03-30T19:52:11.546Z,12.30
2023-03-30T19:54:39.710Z,12.30
2023-03-30T19:57:10.272Z,12.20
2023-03-30T19:59:38.986Z,12.20
2023-03-30T20:02:08.329Z,12.10
2023-03-30T20:04:40.150Z,12.10
2023-03-30T20:07:08.405Z,12.10
2023-03-30T20:09:42.225Z,12.10
2023-03-30T20:12:12.760Z,12.00
2023-03-30T20:14:41.325Z,12.00
2023-03-30T20:17:11.338Z,12.00
2023-03-30T20:19:40.753Z,11.90
2023-03-30T20:22:09.847Z,11.90
2023-03-30T20:24:39.116Z,11.80
2023-03-30T20:27:09.808Z,11.80
2023-03-30T20:29:37.936Z,11.80
2023-03-30T20:32:06.283Z,11.80
2023-03-30T20:34:35.268Z,11.70
2023-03-30T20:37:04.064Z,11.70
2023-03-30T20:39:34.274Z,11.70
2023-03-30T20:42:08.198Z,11.70
2023-03-30T20:44:41.229Z,11.70
2023-03-30T20:47:11.055Z,11.70
2023-03-30T20:49:41.887Z,11.70
2023-03-30T20:52:10.892Z,11.70
2023-03-30T20:54:39.403Z,11.70
2023-03-30T20:57:07.848Z,11.70
2023-03-30T20:59:36.208Z,11.70
2023-03-30T21:02:05.702Z,11.70
2023-03-30T21:04:36.630Z,11.70
2023-03-30T21:07:04.911Z,11.70
2023-03-30T21:09:35.572Z,11.70
2023-03-30T21:12:04.039Z,11.70
2023-03-30T21:14:32.204Z,11.70
2023-03-30T21:17:00.480Z,11.70
2023-03-30T21:19:30.020Z,11.70
2023-03-30T21:22:00.168Z,11.70
2023-03-30T21:24:28.813Z,11.70
2023-03-30T21:26:57.376Z,11.70
2023-03-30T21:29:25.620Z,11.70
2023-03-30T21:31:57.713Z,11.70
2023-03-30T21:34:26.000Z,11.80
2023-03-30T21:36:55.832Z,11.70
2023-03-30T21:39:25.121Z,11.70
2023-03-30T21:41:53.214Z,11.70
2023-03-30T21:44:23.640Z,11.70
2023-03-30T21:46:54.280Z,11.70
2023-03-30T21:49:24.813Z,11.70
2023-03-30T21:51:53.240Z,11.70
2023-03-30T21:54:22.720Z,11.70
2023-03-30T21:56:51.086Z,11.70
2023-03-30T21:59:19.793Z,11.70
2023-03-30T22:01:50.336Z,11.70
2023-03-30T22:04:18.445Z,11.60
2023-03-30T22:06:46.809Z,11.60
2023-03-30T22:09:14.929Z,11.60
2023-03-30T22:11:44.466Z,11.60
2023-03-30T22:14:12.628Z,11.60
2023-03-30T22:16:41.075Z,11.50
2023-03-30T22:19:09.243Z,11.50
2023-03-30T22:21:37.375Z,11.50
2023-03-30T22:24:07.957Z,11.50
2023-03-30T22:26:38.680Z,11.50
2023-03-30T22:29:08.194Z,11.50
2023-03-30T22:31:36.323Z,11.40
2023-03-30T22:34:07.249Z,11.40
2023-03-30T22:36:35.684Z,11.40
2023-03-30T22:39:04.202Z,11.40
2023-03-30T22:41:32.367Z,11.40
2023-03-30T22:44:03.091Z,11.30
2023-03-30T22:46:32.664Z,11.40
2023-03-30T22:49:03.739Z,11.40
2023-03-30T22:51:33.975Z,11.30
2023-03-30T22:54:02.117Z,11.30
2023-03-30T22:56:30.908Z,11.30
2023-03-30T22:59:00.717Z,11.30
2023-03-30T23:01:33.076Z,11.30
2023-03-30T23:04:01.820Z,11.30
2023-03-30T23:06:31.164Z,11.30
2023-03-30T23:09:01.519Z,11.30
2023-03-30T23:11:32.676Z,11.30
2023-03-30T23:14:09.934Z,11.30
2023-03-30T23:16:39.854Z,11.30
2023-03-30T23:19:12.278Z,11.40
2023-03-30T23:21:41.049Z,11.30
2023-03-30T23:24:11.821Z,11.30
2023-03-30T23:26:39.967Z,11.30
2023-03-30T23:29:08.330Z,11.30
2023-03-30T23:31:40.125Z,11.20
2023-03-30T23:34:10.144Z,11.20
2023-03-30T23:36:38.261Z,11.10
2023-03-30T23:39:06.464Z,11.10
2023-03-30T23:41:37.869Z,11.10
2023-03-30T23:44:08.275Z,11.10
2023-03-30T23:46:37.802Z,11.10
2023-03-30T23:49:07.325Z,11.00
2023-03-30T23:51:35.458Z,11.00
2023-03-30T23:54:07.002Z,11.00
2023-03-30T23:56:35.393Z,10.90
2023-03-30T23:59:03.759Z,10.90
